createdAt,value
2023-03-01T00:01:36.733Z,18.73
2023-03-01T00:04:05.261Z,16.73
2023-03-01T00:06:32.672Z,17.05
2023-03-01T00:09:00.102Z,16.55
2023-03-01T00:11:28.850Z,17.85
2023-03-01T00:13:57.978Z,18.63
2023-03-01T00:16:26.919Z,16.75
2023-03-01T00:18:55.224Z,17.48
2023-03-01T00:21:24.621Z,16.67
2023-03-01T00:23:52.344Z,17.17
2023-03-01T00:26:21.204Z,16.15
2023-03-01T00:28:48.571Z,18.30
2023-03-01T00:31:18.159Z,29.50
2023-03-01T00:33:45.724Z,26.63
2023-03-01T00:36:15.554Z,25.48
2023-03-01T00:38:46.077Z,18.45
2023-03-01T00:41:15.380Z,28.45
2023-03-01T00:43:42.688Z,24.40
2023-03-01T00:46:11.465Z,19.80
2023-03-01T00:48:38.808Z,18.55
2023-03-01T00:51:07.103Z,16.13
2023-03-01T00:53:34.438Z,14.88
2023-03-01T00:56:03.333Z,16.17
2023-03-01T00:58:30.519Z,14.82
2023-03-01T01:00:57.575Z,14.82
2023-03-01T01:03:25.123Z,14.50
2023-03-01T01:05:52.759Z,15.68
2023-03-01T01:08:19.921Z,14.55
2023-03-01T01:10:47.643Z,14.68
2023-03-01T01:13:16.266Z,14.35
2023-03-01T01:15:43.289Z,13.95
2023-03-01T01:18:13.079Z,14.77
2023-03-01T01:20:40.019Z,14.38
2023-03-01T01:23:07.293Z,14.82
2023-03-01T01:25:36.182Z,14.13
2023-03-01T01:28:03.452Z,13.10
2023-03-01T01:30:31.847Z,14.38
2023-03-01T01:32:58.860Z,14.00
2023-03-01T01:35:26.024Z,14.02
2023-03-01T01:37:53.079Z,13.52
2023-03-01T01:40:20.296Z,14.20
2023-03-01T01:42:47.499Z,13.50
2023-03-01T01:45:33.173Z,13.38
2023-03-01T01:48:04.188Z,12.88
2023-03-01T01:50:32.604Z,13.80
2023-03-01T01:53:03.020Z,12.50
2023-03-01T01:55:30.898Z,12.95
2023-03-01T01:58:07.000Z,13.45
2023-03-01T02:01:16.808Z,12.95
2023-03-01T02:04:45.913Z,12.52
2023-03-01T02:10:53.183Z,12.43
2023-03-01T02:14:15.688Z,12.55
2023-03-01T02:20:50.968Z,12.23
2023-03-01T02:23:25.735Z,12.05
2023-03-01T02:26:43.494Z,12.52
2023-03-01T02:29:56.295Z,11.77
2023-03-01T02:33:04.023Z,12.25
2023-03-01T02:43:00.148Z,11.32
2023-03-01T02:46:45.037Z,12.05
2023-03-01T02:56:15.513Z,10.85
2023-03-01T02:59:32.133Z,11.25
2023-03-01T03:09:15.839Z,11.93
2023-03-01T03:15:12.715Z,12.50
2023-03-01T03:18:34.940Z,11.88
2023-03-01T03:28:16.085Z,12.45
2023-03-01T03:31:04.606Z,11.48
2023-03-01T03:37:36.146Z,11.75
2023-03-01T03:40:29.523Z,12.50
2023-03-01T03:47:34.601Z,12.35
2023-03-01T03:50:21.122Z,12.68
2023-03-01T03:53:02.002Z,12.23
2023-03-01T03:56:03.005Z,12.52
2023-03-01T03:59:13.481Z,12.77
2023-03-01T04:08:38.383Z,13.07
2023-03-01T04:15:22.690Z,12.02
2023-03-01T04:21:15.002Z,11.80
2023-03-01T04:24:09.942Z,11.93
2023-03-01T04:27:00.071Z,8.85
2023-03-01T04:33:24.668Z,12.07
2023-03-01T04:35:55.714Z,11.63
2023-03-01T04:38:31.604Z,12.10
2023-03-01T04:41:36.570Z,12.60
2023-03-01T04:47:10.281Z,12.73
2023-03-01T04:50:04.633Z,12.23
2023-03-01T04:53:24.788Z,12.27
2023-03-01T04:56:14.051Z,12.63
2023-03-01T04:59:19.764Z,12.93
2023-03-01T05:02:29.612Z,13.25
2023-03-01T05:15:56.628Z,10.07
2023-03-01T05:36:14.573Z,12.45
2023-03-01T05:53:53.985Z,11.45
2023-03-01T06:04:02.787Z,12.18
2023-03-01T06:40:54.711Z,13.63
2023-03-01T06:43:21.874Z,14.00
2023-03-01T06:45:49.093Z,14.90
2023-03-01T06:48:16.566Z,14.45
2023-03-01T06:50:43.959Z,14.63
2023-03-01T06:53:11.145Z,14.90
2023-03-01T06:55:38.324Z,14.98
2023-03-01T06:58:07.022Z,13.70
2023-03-01T07:00:34.513Z,14.13
2023-03-01T07:03:02.650Z,13.73
2023-03-01T07:05:37.463Z,13.57
2023-03-01T07:08:04.619Z,13.45
2023-03-01T07:10:31.786Z,14.00
2023-03-01T07:13:00.248Z,14.82
2023-03-01T07:15:29.147Z,14.40
2023-03-01T07:17:57.527Z,13.20
2023-03-01T07:20:24.574Z,13.48
2023-03-01T07:22:52.039Z,14.15
2023-03-01T07:25:19.501Z,12.85
2023-03-01T07:27:51.018Z,12.93
2023-03-01T07:30:18.784Z,13.55
2023-03-01T07:32:47.606Z,14.57
2023-03-01T07:35:15.023Z,14.10
2023-03-01T07:37:42.282Z,13.32
2023-03-01T07:40:15.325Z,13.90
2023-03-01T07:42:42.391Z,13.80
2023-03-01T07:45:10.164Z,13.77
2023-03-01T07:47:38.233Z,14.20
2023-03-01T07:50:07.750Z,13.60
2023-03-01T07:52:37.794Z,13.30
2023-03-01T07:55:05.526Z,13.20
2023-03-01T07:57:32.625Z,13.05
2023-03-01T08:00:00.397Z,13.48
2023-03-01T08:02:27.445Z,14.25
2023-03-01T08:04:54.461Z,14.82
2023-03-01T08:07:23.386Z,14.18
2023-03-01T08:09:50.509Z,13.27
2023-03-01T08:12:17.567Z,13.23
2023-03-01T08:14:44.716Z,13.45
2023-03-01T08:17:14.350Z,14.07
2023-03-01T08:19:41.505Z,14.02
2023-03-01T08:22:08.450Z,13.73
2023-03-01T08:24:36.906Z,14.30
2023-03-01T08:27:04.071Z,14.05
2023-03-01T08:29:32.239Z,13.80
2023-03-01T08:31:59.418Z,14.73
2023-03-01T08:34:26.998Z,15.07
2023-03-01T08:36:54.402Z,14.07
2023-03-01T08:39:24.136Z,14.45
2023-03-01T08:41:53.261Z,13.65
2023-03-01T08:44:20.508Z,13.63
2023-03-01T08:46:47.686Z,14.35
2023-03-01T08:49:16.539Z,14.05
2023-03-01T08:51:46.695Z,13.90
2023-03-01T08:54:16.289Z,13.40
2023-03-01T08:56:47.231Z,13.88
2023-03-01T08:59:17.395Z,14.38
2023-03-01T09:01:48.566Z,14.00
2023-03-01T09:04:16.408Z,14.23
2023-03-01T09:06:44.034Z,12.75
2023-03-01T09:09:15.385Z,13.73
2023-03-01T09:11:44.218Z,13.18
2023-03-01T09:14:12.302Z,13.15
2023-03-01T09:16:40.737Z,13.48
2023-03-01T09:19:08.143Z,12.73
2023-03-01T09:21:40.500Z,13.38
2023-03-01T09:24:14.014Z,12.68
2023-03-01T09:26:41.060Z,12.80
2023-03-01T09:29:13.066Z,12.60
2023-03-01T09:31:42.525Z,12.73
2023-03-01T09:34:10.535Z,13.27
2023-03-01T09:36:37.748Z,12.80
2023-03-01T09:39:05.652Z,12.88
2023-03-01T09:41:47.641Z,12.70
2023-03-01T09:44:27.045Z,13.30
2023-03-01T09:46:56.481Z,13.30
2023-03-01T09:49:26.620Z,13.70
2023-03-01T09:52:00.677Z,13.18
2023-03-01T09:54:28.489Z,13.48
2023-03-01T09:57:05.259Z,13.65
2023-03-01T09:59:49.387Z,13.73
2023-03-01T10:02:27.376Z,13.35
2023-03-01T10:04:58.003Z,13.90
2023-03-01T10:07:33.655Z,14.40
2023-03-01T10:10:01.052Z,13.85
2023-03-01T10:12:33.782Z,14.50
2023-03-01T10:15:06.523Z,14.38
2023-03-01T10:17:40.903Z,14.52
2023-03-01T10:20:18.137Z,13.93
2023-03-01T10:22:45.277Z,13.73
2023-03-01T10:25:15.699Z,13.85
2023-03-01T10:27:50.322Z,12.63
2023-03-01T10:30:22.072Z,13.95
2023-03-01T10:32:53.726Z,13.63
2023-03-01T10:35:23.657Z,13.43
2023-03-01T10:38:05.883Z,12.65
2023-03-01T10:40:34.162Z,13.32
2023-03-01T10:43:03.785Z,13.45
2023-03-01T10:45:40.908Z,13.57
2023-03-01T10:48:14.933Z,13.13
2023-03-01T10:50:43.304Z,13.75
2023-03-01T10:53:23.898Z,14.02
2023-03-01T10:55:58.803Z,13.90
2023-03-01T10:58:25.797Z,13.45
2023-03-01T11:00:54.872Z,14.45
2023-03-01T11:03:26.100Z,13.75
2023-03-01T11:05:56.527Z,14.13
2023-03-01T11:08:39.359Z,13.32
2023-03-01T11:11:15.356Z,13.88
2023-03-01T11:13:54.418Z,14.00
2023-03-01T11:16:28.292Z,14.13
2023-03-01T11:19:04.796Z,13.50
2023-03-01T11:21:35.566Z,13.75
2023-03-01T11:24:04.279Z,13.45
2023-03-01T11:26:35.474Z,13.95
2023-03-01T11:29:07.341Z,13.50
2023-03-01T11:31:35.458Z,14.02
2023-03-01T11:34:12.513Z,13.23
2023-03-01T11:36:45.129Z,14.15
2023-03-01T11:39:26.108Z,14.23
2023-03-01T11:42:12.925Z,12.70
2023-03-01T11:44:48.820Z,13.30
2023-03-01T11:47:34.050Z,13.55
2023-03-01T11:53:09.457Z,12.45
2023-03-01T11:55:56.750Z,13.90
2023-03-01T11:59:00.834Z,13.10
2023-03-01T12:01:36.239Z,12.57
2023-03-01T12:04:37.713Z,12.77
2023-03-01T12:07:11.674Z,12.48
2023-03-01T12:09:50.409Z,13.40
2023-03-01T12:12:35.610Z,13.80
2023-03-01T12:15:42.073Z,12.95
2023-03-01T12:18:30.153Z,13.40
2023-03-01T12:21:06.586Z,12.05
2023-03-01T12:24:02.226Z,13.23
2023-03-01T12:26:33.383Z,11.88
2023-03-01T12:29:32.697Z,11.80
2023-03-01T12:32:25.829Z,12.50
2023-03-01T12:35:07.356Z,11.68
2023-03-01T12:37:44.107Z,12.45
2023-03-01T12:40:38.680Z,12.23
2023-03-01T12:43:20.541Z,11.82
2023-03-01T12:46:11.940Z,11.65
2023-03-01T12:48:51.804Z,11.82
2023-03-01T12:51:23.849Z,12.07
2023-03-01T12:53:52.337Z,12.40
2023-03-01T12:56:23.933Z,10.88
2023-03-01T12:59:01.353Z,10.95
2023-03-01T13:01:38.335Z,11.35
2023-03-01T13:04:30.480Z,10.55
2023-03-01T13:07:24.299Z,10.88
2023-03-01T13:09:59.192Z,10.98
2023-03-01T13:18:38.549Z,11.15
2023-03-01T13:21:06.705Z,11.30
2023-03-01T13:23:37.333Z,11.13
2023-03-01T13:26:14.004Z,10.23
2023-03-01T13:28:56.839Z,11.15
2023-03-01T13:32:00.317Z,9.88
2023-03-01T13:34:56.930Z,9.90
2023-03-01T13:37:29.620Z,11.38
2023-03-01T13:39:58.364Z,10.77
2023-03-01T13:42:50.029Z,11.05
2023-03-01T13:45:24.500Z,9.18
2023-03-01T13:47:55.598Z,11.48
2023-03-01T13:50:26.383Z,12.13
2023-03-01T13:52:57.308Z,11.15
2023-03-01T13:55:28.151Z,11.32
2023-03-01T13:57:58.117Z,10.65
2023-03-01T14:00:37.231Z,10.13
2023-03-01T14:03:15.887Z,10.82
2023-03-01T14:06:11.153Z,10.60
2023-03-01T14:08:40.330Z,12.25
2023-03-01T14:11:55.439Z,10.75
2023-03-01T14:14:41.373Z,10.63
2023-03-01T14:17:56.323Z,10.90
2023-03-01T14:20:26.622Z,11.43
2023-03-01T14:22:58.243Z,11.35
2023-03-01T14:25:28.459Z,11.10
2023-03-01T14:28:06.378Z,11.23
2023-03-01T14:30:38.313Z,11.23
2023-03-01T14:33:07.880Z,11.50
2023-03-01T14:35:37.484Z,10.52
2023-03-01T14:38:06.112Z,11.27
2023-03-01T14:40:35.850Z,10.32
2023-03-01T14:43:11.961Z,11.07
2023-03-01T14:45:38.988Z,10.38
2023-03-01T14:48:08.427Z,10.35
2023-03-01T14:50:41.045Z,11.07
2023-03-01T14:53:19.018Z,10.63
2023-03-01T14:55:48.626Z,10.48
2023-03-01T14:58:23.446Z,10.88
2023-03-01T15:00:53.302Z,10.20
2023-03-01T15:03:26.729Z,10.80
2023-03-01T15:05:54.265Z,11.02
2023-03-01T15:08:25.798Z,10.38
2023-03-01T15:11:01.277Z,11.38
2023-03-01T15:13:32.497Z,11.93
2023-03-01T15:16:08.140Z,11.18
2023-03-01T15:18:37.101Z,11.10
2023-03-01T15:21:09.389Z,11.00
2023-03-01T15:23:40.539Z,10.32
2023-03-01T15:26:22.172Z,11.30
2023-03-01T15:28:52.904Z,11.13
2023-03-01T15:31:22.430Z,10.40
2023-03-01T15:33:49.946Z,11.75
2023-03-01T15:36:40.220Z,10.63
2023-03-01T15:39:31.261Z,11.20
2023-03-01T15:41:58.312Z,10.48
2023-03-01T15:44:35.011Z,10.98
2023-03-01T15:47:25.687Z,10.90
2023-03-01T15:50:20.220Z,11.65
2023-03-01T15:52:47.493Z,10.55
2023-03-01T15:55:25.280Z,11.05
2023-03-01T15:57:59.683Z,11.15
2023-03-01T16:00:26.925Z,8.48
2023-03-01T16:02:54.115Z,11.48
2023-03-01T16:05:24.181Z,11.43
2023-03-01T16:07:51.954Z,11.25
2023-03-01T16:10:19.561Z,11.95
2023-03-01T16:12:48.227Z,11.60
2023-03-01T16:15:18.124Z,11.93
2023-03-01T16:17:45.606Z,11.43
2023-03-01T16:20:19.618Z,11.07
2023-03-01T16:22:50.175Z,11.88
2023-03-01T16:25:18.927Z,11.73
2023-03-01T16:27:49.052Z,10.75
2023-03-01T16:30:18.232Z,11.30
2023-03-01T16:32:46.899Z,10.35
2023-03-01T16:35:16.411Z,10.95
2023-03-01T16:37:43.864Z,11.00
2023-03-01T16:40:19.071Z,10.25
2023-03-01T16:42:47.946Z,10.60
2023-03-01T16:45:23.857Z,10.45
2023-03-01T16:47:55.494Z,10.75
2023-03-01T16:50:23.082Z,10.82
2023-03-01T16:52:50.536Z,10.73
2023-03-01T16:55:17.683Z,10.40
2023-03-01T16:57:44.819Z,10.25
2023-03-01T17:00:17.414Z,11.50
2023-03-01T17:02:44.716Z,11.07
2023-03-01T17:05:12.150Z,10.07
2023-03-01T17:07:40.240Z,10.82
2023-03-01T17:10:10.185Z,10.50
2023-03-01T17:12:38.167Z,10.05
2023-03-01T17:15:06.615Z,10.57
2023-03-01T17:17:35.439Z,11.25
2023-03-01T17:20:04.713Z,10.57
2023-03-01T17:22:31.919Z,11.35
2023-03-01T17:24:59.109Z,10.27
2023-03-01T17:27:31.476Z,10.35
2023-03-01T17:29:58.600Z,10.15
2023-03-01T17:32:25.914Z,10.60
2023-03-01T17:35:01.302Z,10.82
2023-03-01T17:37:44.696Z,10.20
2023-03-01T17:40:16.032Z,10.38
2023-03-01T17:42:43.124Z,10.75
2023-03-01T17:45:13.018Z,11.32
2023-03-01T17:47:40.158Z,11.18
2023-03-01T17:50:10.115Z,10.48
2023-03-01T17:52:39.981Z,10.50
2023-03-01T17:55:07.907Z,11.80
2023-03-01T17:57:35.001Z,10.65
2023-03-01T18:00:03.336Z,10.68
2023-03-01T18:02:30.407Z,11.27
2023-03-01T18:04:58.516Z,11.48
2023-03-01T18:07:28.127Z,11.75
2023-03-01T18:09:56.000Z,12.70
2023-03-01T18:12:23.169Z,12.82
2023-03-01T18:14:50.628Z,11.90
2023-03-01T18:17:17.704Z,11.48
2023-03-01T18:19:45.240Z,12.10
2023-03-01T18:22:12.654Z,12.00
2023-03-01T18:24:44.404Z,11.70
2023-03-01T18:27:11.463Z,12.50
2023-03-01T18:29:38.529Z,11.55
2023-03-01T18:32:10.757Z,12.82
2023-03-01T18:34:37.980Z,12.73
2023-03-01T18:37:12.128Z,12.38
2023-03-01T18:39:40.578Z,11.83
2023-03-01T18:42:07.950Z,11.95
2023-03-01T18:44:35.378Z,12.40
2023-03-01T18:47:02.406Z,12.07
2023-03-01T18:49:29.778Z,10.80
2023-03-01T18:51:56.841Z,11.65
2023-03-01T18:54:24.298Z,11.05
2023-03-01T18:56:52.748Z,11.70
2023-03-01T18:59:20.302Z,12.40
2023-03-01T19:01:47.336Z,12.20
2023-03-01T19:04:14.354Z,12.43
2023-03-01T19:06:41.463Z,13.13
2023-03-01T19:09:09.135Z,11.98
2023-03-01T19:11:36.193Z,12.48
2023-03-01T19:14:05.188Z,13.40
2023-03-01T19:16:33.999Z,12.80
2023-03-01T19:19:04.027Z,13.32
2023-03-01T19:21:37.679Z,12.90
2023-03-01T19:24:05.391Z,13.38
2023-03-01T19:26:33.228Z,14.27
2023-03-01T19:29:00.804Z,14.80
2023-03-01T19:31:30.349Z,15.10
2023-03-01T19:34:11.471Z,15.13
2023-03-01T19:36:39.294Z,14.27
2023-03-01T19:39:07.519Z,13.55
2023-03-01T19:41:34.761Z,13.68
2023-03-01T19:44:02.036Z,13.85
2023-03-01T19:46:33.783Z,13.77
2023-03-01T19:49:01.301Z,15.55
2023-03-01T19:51:38.033Z,14.20
2023-03-01T19:54:05.703Z,14.82
2023-03-01T19:56:33.569Z,14.70
2023-03-01T19:59:09.744Z,15.65
2023-03-01T20:01:38.310Z,14.88
2023-03-01T20:04:05.412Z,16.77
2023-03-01T20:06:32.834Z,15.25
2023-03-01T20:09:09.056Z,15.30
2023-03-01T20:11:46.351Z,17.23
2023-03-01T20:14:13.370Z,15.55
2023-03-01T20:16:41.776Z,15.25
2023-03-01T20:19:12.024Z,14.95
2023-03-01T20:21:39.007Z,14.80
2023-03-01T20:24:06.309Z,15.43
2023-03-01T20:26:39.997Z,17.10
2023-03-01T20:29:08.068Z,14.90
2023-03-01T20:31:35.070Z,16.17
2023-03-01T20:34:03.590Z,16.20
2023-03-01T20:36:30.568Z,15.30
2023-03-01T20:38:57.840Z,16.73
2023-03-01T20:41:25.000Z,16.35
2023-03-01T20:43:52.439Z,16.25
2023-03-01T20:46:20.395Z,14.25
2023-03-01T20:48:47.441Z,16.00
2023-03-01T20:51:15.891Z,15.63
2023-03-01T20:53:43.031Z,16.88
2023-03-01T20:56:12.419Z,15.18
2023-03-01T20:58:43.140Z,15.40
2023-03-01T21:01:14.428Z,15.60
2023-03-01T21:03:41.563Z,15.38
2023-03-01T21:06:08.892Z,14.68
2023-03-01T21:08:37.769Z,16.08
2023-03-01T21:11:07.279Z,15.52
2023-03-01T21:13:35.599Z,15.88
2023-03-01T21:16:05.318Z,15.23
2023-03-01T21:18:33.189Z,16.75
2023-03-01T21:21:00.930Z,16.98
2023-03-01T21:23:29.765Z,16.35
2023-03-01T21:26:03.661Z,16.73
2023-03-01T21:28:31.115Z,16.35
2023-03-01T21:31:03.586Z,17.33
2023-03-01T21:33:30.765Z,16.10
2023-03-01T21:36:01.927Z,17.17
2023-03-01T21:38:32.448Z,16.95
2023-03-01T21:41:07.782Z,16.45
2023-03-01T21:43:35.548Z,16.48
2023-03-01T21:46:07.288Z,15.80
2023-03-01T21:48:34.626Z,16.83
2023-03-01T21:51:02.710Z,15.82
2023-03-01T21:53:31.603Z,16.38
2023-03-01T21:55:59.272Z,15.90
2023-03-01T21:58:28.708Z,16.95
2023-03-01T22:00:56.027Z,15.77
2023-03-01T22:03:23.228Z,15.32
2023-03-01T22:05:55.159Z,16.00
2023-03-01T22:08:22.216Z,15.45
2023-03-01T22:10:50.928Z,15.30
2023-03-01T22:13:18.964Z,15.95
2023-03-01T22:15:47.759Z,15.50
2023-03-01T22:18:14.829Z,16.63
2023-03-01T22:20:49.848Z,15.93
2023-03-01T22:25:54.402Z,16.27
2023-03-01T22:28:24.537Z,17.48
2023-03-01T22:31:04.098Z,17.15
2023-03-01T22:33:31.323Z,16.77
2023-03-01T22:35:58.426Z,17.13
2023-03-01T22:38:25.535Z,17.45
2023-03-01T22:40:59.698Z,17.55
2023-03-01T22:43:27.521Z,17.47
2023-03-01T22:46:01.860Z,17.48
2023-03-01T22:48:29.130Z,17.60
2023-03-01T22:50:56.235Z,17.63
2023-03-01T22:53:23.297Z,17.95
2023-03-01T22:55:50.352Z,18.17
2023-03-01T22:58:17.473Z,18.30
2023-03-01T23:00:44.671Z,18.13
2023-03-01T23:03:24.843Z,18.25
2023-03-01T23:05:51.976Z,19.77
2023-03-01T23:08:19.032Z,18.35
2023-03-01T23:10:46.125Z,18.67
2023-03-01T23:13:13.141Z,18.02
2023-03-01T23:15:40.256Z,16.95
2023-03-01T23:18:07.462Z,17.15
2023-03-01T23:20:40.065Z,16.33
2023-03-01T23:23:07.100Z,16.73
2023-03-01T23:25:34.134Z,16.77
2023-03-01T23:28:01.160Z,15.93
2023-03-01T23:30:28.195Z,16.48
2023-03-01T23:32:55.243Z,17.50
2023-03-01T23:35:22.940Z,18.48
2023-03-01T23:37:51.749Z,16.95
2023-03-01T23:40:18.939Z,16.42
2023-03-01T23:42:46.735Z,18.85
2023-03-01T23:45:13.732Z,16.83
2023-03-01T23:47:40.817Z,16.45
2023-03-01T23:50:10.955Z,16.23
2023-03-01T23:52:39.968Z,16.45
2023-03-01T23:55:11.379Z,16.98
2023-03-01T23:57:38.538Z,15.98
